Time;durP1;ratioP1;P1;durP2;ratioP2;P2;SDS_P1;SDS_P2;PMS_P1;PMS_P2;Temp;Humidity;BMP_temperature;BMP_pressure;BME280_temperature;BME280_humidity;BME280_pressure;Samples;Min_cycle;Max_cycle;Signal;HPM_P1;HPM_P2
2021/05/09 00:01:20;;;;;;;4.03;1.75;;;;;;;11.51;88.01;97468.50;5070188;28;20048;-80
2021/05/09 00:03:47;;;;;;;3.10;1.60;;;;;;;11.53;86.83;97460.84;5101201;28;20059;-80
2021/05/09 00:06:14;;;;;;;4.25;1.75;;;;;;;11.56;86.07;97470.25;5069066;28;20392;-80
2021/05/09 00:08:40;;;;;;;3.97;1.80;;;;;;;11.52;88.62;97461.97;5067031;28;20049;-79
2021/05/09 00:11:07;;;;;;;4.28;1.70;;;;;;;11.45;91.73;97453.56;5069131;28;20052;-79
2021/05/09 00:13:33;;;;;;;5.25;1.70;;;;;;;11.40;91.67;97466.47;5067232;28;20413;-79
2021/05/09 00:15:59;;;;;;;4.07;1.52;;;;;;;11.39;93.42;97457.53;5068414;28;20048;-80
2021/05/09 00:18:26;;;;;;;5.65;1.65;;;;;;;11.40;91.53;97471.91;5064169;28;20071;-80
2021/05/09 00:20:53;;;;;;;4.65;1.77;;;;;;;11.38;90.87;97463.31;5051047;28;20044;-80
2021/05/09 00:23:19;;;;;;;3.42;1.50;;;;;;;11.35;91.67;97456.63;5055989;28;20109;-79
2021/05/09 00:25:45;;;;;;;5.70;1.80;;;;;;;11.29;94.75;97468.75;5068952;28;20052;-80
2021/05/09 00:28:11;;;;;;;4.38;1.85;;;;;;;11.23;95.65;97461.88;5070344;28;20075;-79
2021/05/09 00:30:37;;;;;;;3.78;2.05;;;;;;;11.19;95.46;97461.75;5073448;28;20049;-79
2021/05/09 00:33:03;;;;;;;3.05;1.80;;;;;;;11.15;98.28;97460.78;5076219;28;20045;-82
2021/05/09 00:35:29;;;;;;;5.15;1.90;;;;;;;11.15;96.63;97454.56;5076254;28;20052;-79
2021/05/09 00:37:55;;;;;;;4.80;1.83;;;;;;;11.13;97.29;97460.34;5079142;28;20044;-81
2021/05/09 00:40:22;;;;;;;6.85;1.90;;;;;;;11.05;100.00;97465.75;5065176;28;20062;-80
2021/05/09 00:42:48;;;;;;;8.40;2.00;;;;;;;11.06;97.77;97457.31;5075239;28;20044;-78
2021/05/09 00:45:14;;;;;;;5.70;2.20;;;;;;;11.00;100.00;97463.22;5077145;28;20049;-81
2021/05/09 00:47:40;;;;;;;4.28;1.85;;;;;;;11.00;100.00;97457.78;5077818;28;20055;-81
2021/05/09 00:50:07;;;;;;;5.32;2.08;;;;;;;11.03;98.54;97446.31;5079065;28;20226;-80
2021/05/09 00:52:36;;;;;;;4.18;1.80;;;;;;;11.10;97.94;97449.31;5077464;28;20067;-80
2021/05/09 00:55:06;;;;;;;4.50;1.92;;;;;;;11.11;97.97;97443.59;5075389;28;20041;-81
2021/05/09 00:57:35;;;;;;;5.20;2.03;;;;;;;11.15;96.94;97438.31;5079519;28;20032;-81
2021/05/09 01:00:04;;;;;;;4.90;2.00;;;;;;;11.17;96.35;97450.44;5076854;28;20040;-80
2021/05/09 01:02:31;;;;;;;6.85;2.08;;;;;;;11.15;97.26;97447.25;5080808;28;20040;-79
2021/05/09 01:05:00;;;;;;;3.80;1.83;;;;;;;11.18;96.12;97449.31;5083225;28;20045;-81
2021/05/09 01:07:27;;;;;;;5.60;2.13;;;;;;;11.18;95.96;97446.59;5058739;28;20044;-80
2021/05/09 01:09:54;;;;;;;5.20;2.00;;;;;;;11.16;97.07;97448.84;5057550;28;20158;-79
2021/05/09 01:12:20;;;;;;;5.45;2.05;;;;;;;11.15;96.46;97431.00;5074177;28;20051;-79
2021/05/09 01:14:47;;;;;;;6.35;2.10;;;;;;;11.12;98.76;97441.69;5074992;28;20048;-80
2021/05/09 01:17:13;;;;;;;3.80;1.90;;;;;;;11.14;98.36;97437.53;5075955;28;20037;-80
2021/05/09 01:19:40;;;;;;;4.65;1.92;;;;;;;11.13;99.18;97435.94;5074564;28;20041;-80
2021/05/09 01:22:09;;;;;;;3.83;1.88;;;;;;;11.07;100.00;97431.81;5075766;28;20040;-81
2021/05/09 01:24:36;;;;;;;4.07;2.05;;;;;;;10.89;100.00;97429.47;5082968;28;20048;-79
2021/05/09 01:27:04;;;;;;;3.50;2.17;;;;;;;10.77;100.00;97426.63;5073573;28;20094;-79
2021/05/09 01:29:32;;;;;;;3.75;2.30;;;;;;;10.56;100.00;97427.28;5074005;28;20041;-78
2021/05/09 01:32:01;;;;;;;5.78;2.63;;;;;;;10.43;100.00;97430.94;5073051;28;20037;-78
2021/05/09 01:34:34;;;;;;;3.58;2.00;;;;;;;10.38;100.00;97427.59;5056598;28;20056;-79
2021/05/09 01:37:01;;;;;;;3.88;2.30;;;;;;;10.32;100.00;97423.47;5088613;28;20044;-80
2021/05/09 01:39:27;;;;;;;6.30;2.85;;;;;;;10.30;100.00;97415.66;5077550;28;20090;-78
2021/05/09 01:41:53;;;;;;;4.30;2.30;;;;;;;10.26;100.00;97417.41;5080342;28;20094;-79
2021/05/09 01:44:19;;;;;;;5.82;2.13;;;;;;;10.38;100.00;97414.88;5076347;28;20067;-80
2021/05/09 01:46:45;;;;;;;7.47;2.10;;;;;;;10.44;100.00;97410.91;5074613;28;20102;-79
2021/05/09 01:49:11;;;;;;;5.50;2.13;;;;;;;10.47;100.00;97415.66;5076022;28;20044;-79
2021/05/09 01:51:37;;;;;;;4.00;2.00;;;;;;;10.43;100.00;97419.31;5074021;28;20048;-78
2021/05/09 01:54:06;;;;;;;5.63;1.90;;;;;;;10.36;100.00;97408.19;5072820;28;20040;-79
2021/05/09 01:56:38;;;;;;;5.10;2.00;;;;;;;10.37;100.00;97405.19;5073026;28;20506;-78
2021/05/09 01:59:04;;;;;;;5.90;1.98;;;;;;;10.45;100.00;97409.75;5075432;28;20040;-79
2021/05/09 02:01:31;;;;;;;2.92;1.60;;;;;;;10.52;100.00;97410.09;5075475;28;20185;-79
2021/05/09 02:03:57;;;;;;;3.88;1.85;;;;;;;10.49;100.00;97410.72;5076102;28;20048;-79
2021/05/09 02:06:23;;;;;;;2.97;1.77;;;;;;;10.59;100.00;97405.00;5073397;28;20032;-79
2021/05/09 02:08:49;;;;;;;5.03;2.30;;;;;;;10.66;100.00;97407.19;5074994;28;20041;-79
2021/05/09 02:11:15;;;;;;;3.85;1.88;;;;;;;10.73;100.00;97410.22;5076255;28;20055;-81
2021/05/09 02:13:41;;;;;;;4.13;1.88;;;;;;;10.77;100.00;97396.81;5077106;28;20040;-80
2021/05/09 02:16:07;;;;;;;4.88;1.80;;;;;;;10.92;100.00;97413.38;5076063;28;20056;-81
2021/05/09 02:18:33;;;;;;;4.80;1.52;;;;;;;10.95;100.00;97407.31;5075990;28;20048;-80
2021/05/09 02:20:59;;;;;;;3.53;1.65;;;;;;;10.91;100.00;97403.66;5076050;28;20049;-79
2021/05/09 02:23:26;;;;;;;3.10;1.65;;;;;;;10.92;100.00;97397.13;5074024;28;20044;-80
2021/05/09 02:25:52;;;;;;;3.83;1.83;;;;;;;11.02;100.00;97399.47;5074616;28;20052;-80
2021/05/09 02:28:18;;;;;;;4.78;1.67;;;;;;;11.11;100.00;97399.47;5076938;28;20206;-79
2021/05/09 02:30:46;;;;;;;4.82;1.60;;;;;;;11.17;100.00;97390.03;5078591;28;20040;-81
2021/05/09 02:33:15;;;;;;;3.25;1.67;;;;;;;11.07;100.00;97402.00;5058835;28;20041;-79
2021/05/09 02:35:41;;;;;;;4.07;1.80;;;;;;;10.94;100.00;97394.88;5082452;28;20433;-79
2021/05/09 02:38:08;;;;;;;3.60;1.58;;;;;;;10.87;100.00;97391.88;5072987;28;20486;-79
2021/05/09 02:40:34;;;;;;;3.90;1.83;;;;;;;10.87;100.00;97399.19;5072636;28;20063;-80
2021/05/09 02:43:00;;;;;;;3.33;1.63;;;;;;;10.90;100.00;97382.31;5060834;28;20516;-79
2021/05/09 02:45:29;;;;;;;8.65;1.52;;;;;;;10.96;100.00;97376.41;5072265;28;20066;-79
2021/05/09 02:47:57;;;;;;;4.07;1.48;;;;;;;11.06;100.00;97381.47;5072355;28;20044;-80
2021/05/09 02:50:23;;;;;;;2.35;1.50;;;;;;;11.16;100.00;97391.16;5074076;28;20051;-80
2021/05/09 02:52:49;;;;;;;2.30;1.35;;;;;;;11.18;100.00;97387.00;5074488;28;20080;-80
2021/05/09 02:55:15;;;;;;;3.78;1.40;;;;;;;11.21;100.00;97380.13;5073412;28;20058;-81
2021/05/09 02:57:42;;;;;;;5.80;1.52;;;;;;;11.33;100.00;97395.72;5074663;28;20086;-80
2021/05/09 03:00:08;;;;;;;2.92;1.40;;;;;;;11.37;99.77;97396.66;5075127;28;20075;-78
2021/05/09 03:02:36;;;;;;;2.20;1.30;;;;;;;11.36;100.00;97392.34;5074268;28;20134;-79
2021/05/09 03:05:07;;;;;;;2.47;1.20;;;;;;;11.31;99.85;97387.91;5056486;28;20056;-79
2021/05/09 03:07:33;;;;;;;6.70;1.40;;;;;;;11.35;100.00;97390.78;5072244;28;20037;-79
2021/05/09 03:09:59;;;;;;;3.03;1.38;;;;;;;11.28;100.00;97394.78;5074093;28;20044;-80
2021/05/09 03:12:27;;;;;;;3.38;1.40;;;;;;;11.22;100.00;97404.22;5075298;28;20071;-80
2021/05/09 03:14:55;;;;;;;2.95;1.55;;;;;;;11.18;100.00;97400.53;5057515;28;20040;-79
2021/05/09 03:17:21;;;;;;;2.75;1.30;;;;;;;11.22;100.00;97404.22;5055565;28;20067;-80
2021/05/09 03:19:47;;;;;;;2.13;1.35;;;;;;;11.19;100.00;97401.34;5072371;28;20044;-79
2021/05/09 03:22:13;;;;;;;2.42;1.13;;;;;;;11.11;100.00;97399.47;5054872;28;20049;-79
2021/05/09 03:24:40;;;;;;;2.28;1.00;;;;;;;11.04;100.00;97399.16;5072855;28;20495;-80
2021/05/09 03:27:11;;;;;;;3.17;1.30;;;;;;;10.92;100.00;97397.13;5071175;28;20545;-80
2021/05/09 03:29:37;;;;;;;4.90;1.30;;;;;;;10.90;100.00;97401.25;5073010;28;20044;-80
2021/05/09 03:32:03;;;;;;;3.03;1.27;;;;;;;10.86;100.00;97398.44;5073879;28;20440;-78
2021/05/09 03:34:29;;;;;;;1.70;1.20;;;;;;;10.91;100.00;97392.84;5082745;28;20571;-79
2021/05/09 03:36:55;;;;;;;2.17;1.10;;;;;;;10.91;100.00;97392.84;5071931;28;20044;-81
2021/05/09 03:39:21;;;;;;;3.97;1.42;;;;;;;10.94;100.00;97391.41;5072175;28;20048;-80
2021/05/09 03:41:47;;;;;;;4.10;1.50;;;;;;;10.95;100.00;97399.19;5072086;28;20092;-80
2021/05/09 03:44:14;;;;;;;2.40;1.20;;;;;;;10.97;100.00;97394.22;5072466;28;20053;-80
2021/05/09 03:46:40;;;;;;;2.47;1.02;;;;;;;11.01;100.00;97387.06;5071148;28;20048;-80
2021/05/09 03:49:06;;;;;;;6.35;1.13;;;;;;;11.07;100.00;97396.59;5071463;28;20054;-79
2021/05/09 03:51:33;;;;;;;2.83;1.15;;;;;;;11.09;100.00;97396.28;5056476;28;20059;-79
2021/05/09 03:54:02;;;;;;;1.95;1.05;;;;;;;11.23;100.00;97392.25;5074792;28;20047;-79
2021/05/09 03:56:29;;;;;;;2.70;1.00;;;;;;;11.28;100.00;97391.25;5075616;28;20040;-80
2021/05/09 03:58:55;;;;;;;3.50;1.10;;;;;;;11.42;100.00;97391.84;5071824;28;20067;-80
2021/05/09 04:01:24;;;;;;;1.70;1.13;;;;;;;11.42;100.00;97389.13;5075417;28;20047;-80
2021/05/09 04:03:50;;;;;;;2.45;1.23;;;;;;;11.57;100.00;97396.72;5077572;28;20131;-80
2021/05/09 04:06:16;;;;;;;3.17;1.33;;;;;;;11.66;100.00;97388.53;5077357;28;20044;-81
2021/05/09 04:08:42;;;;;;;4.18;1.10;;;;;;;11.76;100.00;97383.56;5076711;28;20106;-81
2021/05/09 04:11:12;;;;;;;1.92;1.20;;;;;;;11.87;100.00;97392.13;5075722;28;20514;-80
2021/05/09 04:13:45;;;;;;;3.20;1.00;;;;;;;11.98;97.48;97390.59;5080350;28;20045;-81
2021/05/09 04:16:12;;;;;;;4.05;1.20;;;;;;;12.03;96.74;97390.41;5075153;28;20044;-80
2021/05/09 04:18:38;;;;;;;4.20;1.50;;;;;;;11.83;100.00;97388.47;5080591;28;20040;-78
2021/05/09 04:21:05;;;;;;;4.15;1.80;;;;;;;11.55;100.00;97390.84;5053284;28;20053;-79
2021/05/09 04:23:32;;;;;;;3.65;1.80;;;;;;;11.22;100.00;97389.88;5058257;28;20037;-81
2021/05/09 04:25:59;;;;;;;6.28;1.58;;;;;;;10.94;100.00;97389.47;5057494;28;20500;-80
2021/05/09 04:28:25;;;;;;;6.25;1.67;;;;;;;10.87;100.00;97389.16;5052841;28;20128;-80
2021/05/09 04:30:52;;;;;;;3.58;1.63;;;;;;;10.73;100.00;97395.91;5040041;28;20053;-79
2021/05/09 04:33:25;;;;;;;3.42;1.50;;;;;;;10.72;100.00;97395.09;5061838;28;20044;-80
2021/05/09 04:35:51;;;;;;;4.28;1.92;;;;;;;10.60;100.00;97389.53;5054114;28;20056;-79
2021/05/09 04:38:18;;;;;;;4.20;2.13;;;;;;;10.68;100.00;97396.06;5055350;28;20041;-80
2021/05/09 04:40:44;;;;;;;4.95;1.52;;;;;;;10.63;100.00;97388.91;5055050;28;20059;-81
2021/05/09 04:43:16;;;;;;;3.78;1.83;;;;;;;10.68;100.00;97383.31;5056107;28;20083;-79
2021/05/09 04:45:47;;;;;;;3.08;1.73;;;;;;;10.75;100.00;97390.94;5055562;28;20041;-80
2021/05/09 04:48:16;;;;;;;3.42;1.30;;;;;;;10.81;100.00;97393.19;5053469;28;20095;-80
2021/05/09 04:50:42;;;;;;;1.75;1.30;;;;;;;10.88;100.00;97395.38;5054087;28;20045;-81
2021/05/09 04:53:28;;;;;;;2.30;1.30;;;;;;;10.93;100.00;97398.72;5055593;28;20048;-80
2021/05/09 04:55:57;;;;;;;4.10;1.55;;;;;;;11.01;100.00;97397.09;5041578;28;20105;-81
2021/05/09 04:58:26;;;;;;;3.20;1.67;;;;;;;11.03;100.00;97387.53;5057571;28;20404;-80
2021/05/09 05:00:54;;;;;;;2.35;1.17;;;;;;;11.17;100.00;97392.75;5041614;28;20033;-79
2021/05/09 05:03:21;;;;;;;2.17;1.30;;;;;;;11.24;100.00;97396.56;5055363;28;20041;-79
2021/05/09 05:05:47;;;;;;;3.47;1.60;;;;;;;11.32;100.00;97391.41;5056515;28;20196;-79
2021/05/09 05:08:14;;;;;;;5.38;1.70;;;;;;;11.18;100.00;97400.53;5056434;28;20041;-85
2021/05/09 05:10:40;;;;;;;4.68;1.65;;;;;;;11.22;100.00;97403.41;5056861;28;20047;-83
2021/05/09 05:13:20;;;;;;;2.90;1.65;;;;;;;11.31;100.00;97393.31;5071261;28;20561;-82
2021/05/09 05:15:49;;;;;;;8.38;1.70;;;;;;;11.36;100.00;97395.06;5058600;28;20492;-82
2021/05/09 05:18:16;;;;;;;5.10;1.23;;;;;;;11.55;100.00;97392.75;5065471;28;20040;-84
2021/05/09 05:20:42;;;;;;;4.07;0.95;;;;;;;12.22;100.00;97395.38;5080929;28;20052;-85
2021/05/09 05:23:11;;;;;;;4.57;1.25;;;;;;;12.67;100.00;97390.84;5078123;28;20036;-85
2021/05/09 05:25:41;;;;;;;3.25;0.80;;;;;;;13.01;100.00;97406.00;5087375;28;20044;-82
2021/05/09 05:28:08;;;;;;;3.67;0.90;;;;;;;13.30;100.00;97403.16;5094411;28;20069;-84
2021/05/09 05:30:34;;;;;;;2.25;1.00;;;;;;;13.53;100.00;97406.22;5105305;28;20050;-84
2021/05/09 05:33:04;;;;;;;1.50;0.90;;;;;;;13.65;100.00;97396.13;5097354;28;20040;-83
2021/05/09 05:35:30;;;;;;;2.20;1.20;;;;;;;13.79;100.00;97401.25;5094381;28;20058;-80
2021/05/09 05:37:57;;;;;;;1.85;1.10;;;;;;;13.90;100.00;97396.13;5095642;28;20059;-82
2021/05/09 05:40:24;;;;;;;5.05;1.23;;;;;;;13.96;100.00;97397.50;5079966;28;20055;-83
2021/05/09 05:42:52;;;;;;;2.92;1.20;;;;;;;13.95;100.00;97390.47;5078190;28;20071;-83
2021/05/09 05:45:18;;;;;;;3.40;1.55;;;;;;;13.92;100.00;97383.78;5097286;28;20528;-83
2021/05/09 05:47:45;;;;;;;3.67;1.25;;;;;;;13.87;100.00;97400.34;5094888;28;20048;-82
2021/05/09 05:50:12;;;;;;;2.17;1.13;;;;;;;13.73;100.00;97397.16;5077946;28;20048;-82
2021/05/09 05:52:38;;;;;;;6.97;1.45;;;;;;;13.69;100.00;97404.44;5093954;28;20073;-83
2021/05/09 05:55:05;;;;;;;1.85;1.25;;;;;;;13.71;100.00;97402.94;5077551;28;20056;-82
2021/05/09 05:57:32;;;;;;;3.85;1.35;;;;;;;13.64;100.00;97394.56;5094920;28;20044;-83
2021/05/09 05:59:58;;;;;;;2.88;1.50;;;;;;;13.58;100.00;97379.59;5095455;28;20068;-82
2021/05/09 06:02:24;;;;;;;2.38;1.52;;;;;;;13.61;100.00;97380.84;5097098;28;20047;-84
2021/05/09 06:04:51;;;;;;;2.58;1.40;;;;;;;13.52;100.00;97394.53;5103826;28;20135;-81
2021/05/09 06:07:18;;;;;;;3.22;1.52;;;;;;;13.52;100.00;97399.22;5094136;28;20032;-81
2021/05/09 06:09:44;;;;;;;3.92;1.60;;;;;;;13.60;100.00;97401.81;5076101;28;20458;-83
2021/05/09 06:12:10;;;;;;;3.30;1.17;;;;;;;13.63;100.00;97394.91;5092150;28;20446;-83
2021/05/09 06:14:37;;;;;;;3.35;1.25;;;;;;;13.73;100.00;97403.41;5078946;28;20052;-82
2021/05/09 06:17:03;;;;;;;3.95;1.30;;;;;;;13.89;100.00;97399.97;5080943;28;20511;-82
2021/05/09 06:19:33;;;;;;;3.15;1.30;;;;;;;14.09;100.00;97393.63;5066659;28;20466;-82
2021/05/09 06:21:59;;;;;;;4.85;1.30;;;;;;;14.32;100.00;97394.75;5083058;28;20100;-82
2021/05/09 06:24:27;;;;;;;2.17;1.10;;;;;;;14.44;100.00;97385.72;5079950;28;20241;-80
2021/05/09 06:26:54;;;;;;;3.20;1.33;;;;;;;14.55;100.00;97386.84;5060776;28;20045;-83
2021/05/09 06:29:20;;;;;;;2.03;1.20;;;;;;;14.71;100.00;97391.19;5085424;28;20104;-82
2021/05/09 06:31:46;;;;;;;4.38;1.55;;;;;;;14.87;99.21;97383.84;5078128;28;20058;-82
2021/05/09 06:34:12;;;;;;;6.25;1.20;;;;;;;15.05;97.54;97386.22;5075491;28;20115;-83
2021/05/09 06:36:40;;;;;;;2.47;1.58;;;;;;;15.19;92.82;97386.63;5059320;28;20079;-84
2021/05/09 06:39:06;;;;;;;3.40;1.17;;;;;;;15.37;87.30;97394.13;5077524;28;20049;-83
2021/05/09 06:41:35;;;;;;;3.60;1.02;;;;;;;15.55;89.76;97389.91;5060245;28;20058;-85
2021/05/09 06:44:05;;;;;;;5.60;0.93;;;;;;;15.70;80.99;97385.59;5059850;28;20044;-85
2021/05/09 06:46:31;;;;;;;2.03;0.90;;;;;;;15.86;73.64;97378.19;5059439;28;20058;-84
2021/05/09 06:48:58;;;;;;;2.53;1.00;;;;;;;16.00;69.15;97392.13;5077758;28;20071;-81
2021/05/09 06:51:24;;;;;;;6.30;1.92;;;;;;;16.23;69.32;97382.13;5075791;28;20269;-81
2021/05/09 06:53:50;;;;;;;1.63;1.10;;;;;;;16.37;69.23;97380.84;5077788;28;20049;-82
2021/05/09 06:56:16;;;;;;;2.85;0.90;;;;;;;16.53;62.14;97379.69;5078911;28;20109;-83
2021/05/09 06:58:43;;;;;;;1.25;0.68;;;;;;;16.69;60.42;97376.88;5077909;28;20044;-83
2021/05/09 07:01:12;;;;;;;1.95;0.80;;;;;;;16.80;60.72;97366.94;5087244;28;20076;-84
2021/05/09 07:03:40;;;;;;;1.38;0.80;;;;;;;16.88;59.27;97368.63;5089059;28;20040;-82
2021/05/09 07:06:06;;;;;;;1.95;0.80;;;;;;;16.96;57.68;97362.16;5071345;28;20128;-82
2021/05/09 07:08:32;;;;;;;2.25;0.90;;;;;;;17.11;56.02;97363.97;5088846;28;20047;-81
2021/05/09 07:10:58;;;;;;;1.73;0.75;;;;;;;17.29;59.38;97365.09;5092572;28;20040;-83
2021/05/09 07:13:24;;;;;;;3.60;0.93;;;;;;;17.48;56.90;97363.44;5103583;28;20036;-82
2021/05/09 07:15:51;;;;;;;3.38;0.95;;;;;;;17.63;56.55;97374.28;5107614;28;20040;-83
2021/05/09 07:18:26;;;;;;;1.60;0.80;;;;;;;17.73;56.58;97370.16;5104303;28;20068;-83
2021/05/09 07:20:56;;;;;;;;;;;;;;;17.82;54.47;97357.78;5070604;28;20028;-83
2021/05/09 07:23:24;;;;;;;1.33;0.70;;;;;;;17.95;55.11;97363.81;5076906;28;19920;-84
2021/05/09 07:25:51;;;;;;;2.85;0.68;;;;;;;17.94;52.98;97359.50;5089793;28;20056;-82
2021/05/09 07:28:19;;;;;;;1.13;0.80;;;;;;;17.95;55.56;97355.59;5088179;28;20047;-83
2021/05/09 07:30:46;;;;;;;1.20;0.63;;;;;;;18.11;54.93;97349.97;5084847;28;20044;-82
2021/05/09 07:33:13;;;;;;;1.55;0.85;;;;;;;18.12;53.94;97340.59;5081313;28;20024;-83
2021/05/09 07:35:43;;;;;;;3.08;0.77;;;;;;;18.22;55.12;97343.44;5084212;28;20052;-81
2021/05/09 07:38:14;;;;;;;3.03;0.80;;;;;;;18.34;54.03;97336.97;5071020;28;20143;-81
2021/05/09 07:40:40;;;;;;;2.75;0.85;;;;;;;18.43;55.29;97351.16;5084078;28;20041;-84
2021/05/09 07:43:13;;;;;;;2.65;1.13;;;;;;;18.50;55.66;97354.03;5083965;28;20052;-83
2021/05/09 07:45:40;;;;;;;2.53;1.02;;;;;;;18.64;52.74;97344.03;5079276;28;20045;-82
2021/05/09 07:48:08;;;;;;;2.60;0.90;;;;;;;18.83;52.52;97337.59;5080720;28;20040;-81
2021/05/09 07:50:35;;;;;;;8.43;1.52;;;;;;;19.09;51.72;97336.66;5076898;28;20052;-83
2021/05/09 07:53:02;;;;;;;6.72;2.05;;;;;;;19.23;52.42;97331.28;5078225;28;20051;-81
2021/05/09 07:55:29;;;;;;;2.42;1.00;;;;;;;19.52;51.36;97332.34;5080093;28;20055;-82
2021/05/09 07:57:57;;;;;;;4.82;1.05;;;;;;;19.63;51.43;97330.50;5097544;28;20131;-81
2021/05/09 08:00:24;;;;;;;1.75;0.80;;;;;;;19.68;52.10;97328.19;5098275;28;20043;-82
2021/05/09 08:02:51;;;;;;;4.22;0.85;;;;;;;19.81;51.15;97323.97;5073279;28;20106;-76
2021/05/09 08:05:18;;;;;;;4.50;0.90;;;;;;;19.92;50.96;97327.53;5049535;28;20051;-75
2021/05/09 08:07:51;;;;;;;2.88;1.20;;;;;;;20.00;49.34;97324.88;5059720;28;20106;-82
2021/05/09 08:10:19;;;;;;;1.65;0.90;;;;;;;19.93;49.68;97322.84;5076537;28;20104;-82
2021/05/09 08:12:45;;;;;;;2.03;0.98;;;;;;;20.03;49.15;97315.84;5071876;28;20528;-78
2021/05/09 08:15:13;;;;;;;2.85;0.88;;;;;;;20.08;49.17;97310.75;5073274;28;20118;-76
2021/05/09 08:17:39;;;;;;;4.78;0.85;;;;;;;20.17;50.36;97313.97;5077447;28;20064;-77
2021/05/09 08:20:06;;;;;;;2.35;0.80;;;;;;;20.38;48.26;97313.31;5069660;28;20128;-78
2021/05/09 08:22:32;;;;;;;4.75;1.00;;;;;;;20.55;48.30;97311.78;5071418;28;20476;-83
2021/05/09 08:24:59;;;;;;;2.22;0.90;;;;;;;20.47;48.06;97311.75;5057274;28;20044;-83
2021/05/09 08:27:29;;;;;;;3.78;0.98;;;;;;;20.63;50.84;97308.69;5075901;28;20087;-84
2021/05/09 08:29:57;;;;;;;3.17;1.00;;;;;;;20.90;52.86;97309.94;5071237;28;20048;-85
2021/05/09 08:32:24;;;;;;;1.55;0.98;;;;;;;21.16;49.11;97310.78;5074893;28;20056;-77
2021/05/09 08:34:51;;;;;;;1.85;0.73;;;;;;;21.31;48.01;97324.19;5064769;28;20131;-79
2021/05/09 08:37:19;;;;;;;1.58;0.70;;;;;;;21.36;46.36;97312.00;5079363;28;20068;-84
2021/05/09 08:39:46;;;;;;;1.58;0.70;;;;;;;21.61;46.47;97315.53;5078655;28;20493;-83
2021/05/09 08:42:19;;;;;;;2.60;0.90;;;;;;;21.88;45.56;97308.44;5061346;28;20040;-81
2021/05/09 08:44:47;;;;;;;1.75;0.80;;;;;;;22.11;46.84;97296.97;5074226;28;20061;-82
2021/05/09 08:47:21;;;;;;;1.80;0.80;;;;;;;22.23;45.87;97291.81;5068188;28;20055;-81
2021/05/09 08:49:49;;;;;;;2.33;0.90;;;;;;;22.15;45.03;97297.72;5059706;28;20041;-81
2021/05/09 08:52:20;;;;;;;0.93;0.75;;;;;;;22.35;44.61;97285.03;5053129;28;20056;-81
2021/05/09 08:54:50;;;;;;;1.98;0.70;;;;;;;22.43;47.44;97294.88;5068608;28;20720;-77
2021/05/09 08:57:17;;;;;;;1.90;0.70;;;;;;;22.42;46.15;97292.53;5062742;28;20068;-76
2021/05/09 08:59:43;;;;;;;1.10;0.73;;;;;;;22.74;46.87;97293.16;5071355;28;20040;-80
2021/05/09 09:02:10;;;;;;;1.60;0.90;;;;;;;22.87;42.98;97288.75;5075774;28;20051;-81
2021/05/09 09:04:45;;;;;;;1.15;0.65;;;;;;;23.12;43.29;97289.41;5054919;28;20114;-76
2021/05/09 09:07:12;;;;;;;2.95;0.82;;;;;;;23.24;44.40;97288.13;5073353;28;20044;-83
2021/05/09 09:09:47;;;;;;;1.48;0.60;;;;;;;23.06;41.96;97277.22;5072425;28;20052;-82
2021/05/09 09:12:15;;;;;;;0.90;0.70;;;;;;;22.64;42.02;97277.47;5052856;28;20673;-76
2021/05/09 09:14:56;;;;;;;2.53;0.85;;;;;;;22.48;41.72;97286.19;5067290;28;20059;-77
2021/05/09 09:17:23;;;;;;;1.73;0.80;;;;;;;22.60;42.28;97277.47;5067034;28;20044;-77
2021/05/09 09:20:13;;;;;;;2.15;0.90;;;;;;;22.93;43.83;97279.66;5071225;28;20048;-80
2021/05/09 09:22:57;;;;;;;1.92;0.80;;;;;;;22.97;43.31;97287.16;5070978;28;20052;-77
2021/05/09 09:25:26;;;;;;;3.63;0.88;;;;;;;23.06;42.50;97277.22;5071419;28;20067;-76
2021/05/09 09:27:53;;;;;;;1.45;0.70;;;;;;;23.53;42.11;97265.44;5072490;28;20044;-79
2021/05/09 09:30:22;;;;;;;2.25;0.90;;;;;;;23.97;41.30;97261.81;5072215;28;20052;-78
2021/05/09 09:33:07;;;;;;;1.48;0.90;;;;;;;24.22;39.39;97269.84;5055543;28;20551;-80
2021/05/09 09:35:34;;;;;;;2.58;0.90;;;;;;;24.10;43.10;97264.88;5069209;28;20056;-77
2021/05/09 09:38:02;;;;;;;3.63;0.80;;;;;;;23.81;42.51;97264.34;5070783;28;20045;-79
2021/05/09 09:40:28;;;;;;;1.92;0.90;;;;;;;24.55;40.99;97259.94;5051960;28;20052;-80
2021/05/09 09:42:54;;;;;;;3.65;0.80;;;;;;;25.19;42.18;97257.09;5075372;28;20063;-82
2021/05/09 09:45:26;;;;;;;1.60;0.90;;;;;;;26.27;39.00;97253.59;5056554;28;20044;-81
2021/05/09 09:47:56;;;;;;;6.85;1.80;;;;;;;26.60;37.36;97246.16;5070809;28;20504;-81
2021/05/09 09:50:43;;;;;;;4.30;1.00;;;;;;;27.05;35.39;97244.38;5070861;28;20070;-78
2021/05/09 09:53:26;;;;;;;;;;;;;;;27.82;35.01;97240.91;5070568;28;20472;-80
2021/05/09 09:56:09;;;;;;;1.40;0.82;;;;;;;28.00;34.07;97237.63;5077634;28;19931;-79
2021/05/09 09:58:53;;;;;;;1.75;0.90;;;;;;;27.83;32.30;97246.00;5052206;28;20044;-81
2021/05/09 10:01:24;;;;;;;1.00;0.70;;;;;;;26.52;32.88;97247.53;5054253;28;20045;-77
2021/05/09 10:03:53;;;;;;;1.40;0.80;;;;;;;27.16;36.01;97249.66;5048965;28;20148;-76
2021/05/09 10:06:20;;;;;;;4.60;1.00;;;;;;;27.94;35.30;97242.16;5070448;28;20109;-80
2021/05/09 10:08:47;;;;;;;3.38;0.90;;;;;;;-141.50;100.00;63355.56;5067388;28;20047;-77
2021/05/09 10:11:14;;;;;;;1.45;0.80;;;;;;;-141.50;100.00;63355.56;5069674;28;20051;-77
2021/05/09 10:13:43;;;;;;;1.90;0.90;;;;;;;-141.50;100.00;63355.56;5064575;28;20056;-77
2021/05/09 10:16:10;;;;;;;2.00;0.90;;;;;;;-141.50;100.00;63355.56;5066398;28;20442;-78
2021/05/09 10:18:46;;;;;;;1.00;0.70;;;;;;;-141.50;100.00;63355.56;5085627;28;20050;-77
2021/05/09 10:21:13;;;;;;;3.08;0.90;;;;;;;-141.50;100.00;63355.56;5089434;28;20040;-80
2021/05/09 10:24:07;;;;;;;2.10;1.02;;;;;;;-141.50;100.00;63355.56;5070261;28;20057;-75
2021/05/09 10:26:47;;;;;;;3.75;0.82;;;;;;;-141.50;100.00;63355.56;5066396;28;20075;-79
2021/05/09 10:29:36;;;;;;;1.48;0.90;;;;;;;-141.50;100.00;63355.56;5082308;28;20044;-77
2021/05/09 10:32:05;;;;;;;3.95;1.05;;;;;;;27.94;35.30;97242.16;5066314;28;20079;-76
2021/05/09 10:37:42;;;;;;;2.63;1.00;;;;;;;31.86;28.62;97230.06;5070496;28;20412;-79
2021/05/09 10:40:26;;;;;;;2.03;0.98;;;;;;;31.86;28.62;97230.06;5065229;28;20048;-78
2021/05/09 10:43:02;;;;;;;2.53;1.20;;;;;;;32.04;29.79;97224.50;5058386;28;20650;-77
2021/05/09 10:45:34;;;;;;;1.38;0.93;;;;;;;30.98;28.83;97221.75;5054152;28;20123;-77
2021/05/09 10:48:13;;;;;;;3.53;1.02;;;;;;;31.37;29.80;97218.94;5069995;22;20067;-81
2021/05/09 10:50:43;;;;;;;5.22;0.98;;;;;;;30.61;30.85;97221.53;5064481;28;20241;-80
2021/05/09 10:53:09;;;;;;;2.92;0.85;;;;;;;31.07;30.59;97216.97;5067869;28;20037;-80
2021/05/09 10:55:35;;;;;;;2.95;0.93;;;;;;;30.97;31.28;97225.81;5066692;28;20052;-80
2021/05/09 10:58:07;;;;;;;4.97;1.05;;;;;;;31.85;29.14;97217.31;5061356;28;20499;-81
2021/05/09 11:00:56;;;;;;;3.17;1.00;;;;;;;32.59;29.49;97210.44;5081085;28;20443;-80
2021/05/09 11:03:34;;;;;;;3.28;1.10;;;;;;;32.23;28.04;97221.69;5076656;28;20056;-81
2021/05/09 11:06:08;;;;;;;2.95;1.23;;;;;;;32.26;28.86;97220.75;5071907;28;20048;-82
2021/05/09 11:08:59;;;;;;;4.10;1.05;;;;;;;32.68;28.10;97216.00;5051158;28;20055;-80
2021/05/09 11:11:29;;;;;;;2.28;1.17;;;;;;;32.50;28.48;97218.84;5070161;28;20051;-80
2021/05/09 11:14:02;;;;;;;2.60;1.10;;;;;;;31.67;29.55;97214.50;5070609;28;20055;-80
2021/05/09 11:16:42;;;;;;;3.63;0.95;;;;;;;32.96;29.30;97214.66;5072088;28;20503;-80
2021/05/09 11:19:12;;;;;;;4.00;1.00;;;;;;;33.83;27.08;97210.78;5072227;28;20071;-80
2021/05/09 11:21:44;;;;;;;3.03;1.00;;;;;;;33.83;27.08;97210.78;5058469;28;20055;-80
2021/05/09 11:24:21;;;;;;;3.33;1.13;;;;;;;35.86;26.73;97204.72;5098107;28;20051;-79
2021/05/09 11:26:49;;;;;;;1.65;1.10;;;;;;;35.72;25.81;97203.56;5096561;28;20126;-81
2021/05/09 11:29:24;;;;;;;1.80;1.15;;;;;;;34.44;28.38;97201.50;5095113;28;20040;-80
2021/05/09 11:31:52;;;;;;;1.60;1.00;;;;;;;33.79;27.34;97198.94;5080018;28;20044;-80
2021/05/09 11:34:20;;;;;;;4.55;1.40;;;;;;;31.91;29.40;97197.84;5096170;28;20113;-80
2021/05/09 11:36:49;;;;;;;6.20;1.40;;;;;;;33.90;28.42;97201.22;5101701;28;20048;-80
2021/05/09 11:39:17;;;;;;;2.95;1.42;;;;;;;34.32;28.44;97196.19;5103393;28;20040;-80